sensor_id;sensor_type;location;lat;lon;timestamp;P1;durP1;ratioP1;P2;durP2;ratioP2
15952;SDS011;8075;47.766;8.846;2022-07-23T00:01:00;10.23;;;9.30;;
15952;SDS011;8075;47.766;8.846;2022-07-23T00:03:26;10.25;;;9.27;;
15952;SDS011;8075;47.766;8.846;2022-07-23T00:05:52;9.82;;;8.85;;
15952;SDS011;8075;47.766;8.846;2022-07-23T00:08:18;9.50;;;8.68;;
15952;SDS011;8075;47.766;8.846;2022-07-23T00:10:44;9.93;;;8.80;;
15952;SDS011;8075;47.766;8.846;2022-07-23T00:13:10;9.82;;;8.98;;
15952;SDS011;8075;47.766;8.846;2022-07-23T00:15:36;9.85;;;8.98;;
15952;SDS011;8075;47.766;8.846;2022-07-23T00:18:02;10.18;;;9.07;;
15952;SDS011;8075;47.766;8.846;2022-07-23T00:20:28;9.85;;;9.05;;
15952;SDS011;8075;47.766;8.846;2022-07-23T00:22:54;10.23;;;9.35;;
15952;SDS011;8075;47.766;8.846;2022-07-23T00:25:21;10.53;;;9.70;;
15952;SDS011;8075;47.766;8.846;2022-07-23T00:27:47;9.95;;;9.20;;
15952;SDS011;8075;47.766;8.846;2022-07-23T00:30:13;9.68;;;8.88;;
15952;SDS011;8075;47.766;8.846;2022-07-23T00:32:49;10.23;;;9.32;;
15952;SDS011;8075;47.766;8.846;2022-07-23T00:35:16;9.80;;;8.88;;
15952;SDS011;8075;47.766;8.846;2022-07-23T00:37:42;10.48;;;9.57;;
15952;SDS011;8075;47.766;8.846;2022-07-23T00:40:08;11.27;;;10.32;;
15952;SDS011;8075;47.766;8.846;2022-07-23T00:42:34;11.98;;;10.95;;
15952;SDS011;8075;47.766;8.846;2022-07-23T00:45:00;10.77;;;9.88;;
15952;SDS011;8075;47.766;8.846;2022-07-23T00:47:26;11.25;;;10.25;;
15952;SDS011;8075;47.766;8.846;2022-07-23T00:49:52;10.27;;;9.40;;
15952;SDS011;8075;47.766;8.846;2022-07-23T00:52:18;10.60;;;9.63;;
15952;SDS011;8075;47.766;8.846;2022-07-23T00:54:44;9.65;;;8.95;;
15952;SDS011;8075;47.766;8.846;2022-07-23T00:57:10;10.15;;;9.45;;
15952;SDS011;8075;47.766;8.846;2022-07-23T00:59:38;10.38;;;9.50;;
15952;SDS011;8075;47.766;8.846;2022-07-23T01:02:04;9.00;;;8.30;;
15952;SDS011;8075;47.766;8.846;2022-07-23T01:04:30;10.38;;;9.38;;
15952;SDS011;8075;47.766;8.846;2022-07-23T01:06:56;9.93;;;9.13;;
15952;SDS011;8075;47.766;8.846;2022-07-23T01:09:22;10.00;;;9.20;;
15952;SDS011;8075;47.766;8.846;2022-07-23T01:11:48;9.68;;;8.88;;
15952;SDS011;8075;47.766;8.846;2022-07-23T01:14:15;9.32;;;8.70;;
15952;SDS011;8075;47.766;8.846;2022-07-23T01:16:42;9.40;;;8.70;;
15952;SDS011;8075;47.766;8.846;2022-07-23T01:19:08;9.52;;;8.82;;
15952;SDS011;8075;47.766;8.846;2022-07-23T01:21:42;9.50;;;8.80;;
15952;SDS011;8075;47.766;8.846;2022-07-23T01:24:09;9.55;;;8.75;;
15952;SDS011;8075;47.766;8.846;2022-07-23T01:26:35;9.18;;;8.40;;
15952;SDS011;8075;47.766;8.846;2022-07-23T01:29:02;9.63;;;8.83;;
15952;SDS011;8075;47.766;8.846;2022-07-23T01:31:28;9.25;;;8.63;;
15952;SDS011;8075;47.766;8.846;2022-07-23T01:33:54;9.15;;;8.45;;
15952;SDS011;8075;47.766;8.846;2022-07-23T01:36:20;8.80;;;8.10;;
15952;SDS011;8075;47.766;8.846;2022-07-23T01:38:46;9.40;;;8.70;;
15952;SDS011;8075;47.766;8.846;2022-07-23T01:41:12;9.80;;;8.90;;
15952;SDS011;8075;47.766;8.846;2022-07-23T01:43:38;9.77;;;8.98;;
15952;SDS011;8075;47.766;8.846;2022-07-23T01:46:04;9.27;;;8.50;;
15952;SDS011;8075;47.766;8.846;2022-07-23T01:48:30;9.20;;;8.52;;
15952;SDS011;8075;47.766;8.846;2022-07-23T01:50:56;8.82;;;8.23;;
15952;SDS011;8075;47.766;8.846;2022-07-23T01:53:22;8.82;;;8.13;;
15952;SDS011;8075;47.766;8.846;2022-07-23T01:55:48;8.68;;;7.97;;
15952;SDS011;8075;47.766;8.846;2022-07-23T01:58:14;8.93;;;8.15;;
15952;SDS011;8075;47.766;8.846;2022-07-23T02:00:40;8.32;;;7.70;;
15952;SDS011;8075;47.766;8.846;2022-07-23T02:03:06;8.88;;;8.07;;
15952;SDS011;8075;47.766;8.846;2022-07-23T02:05:32;8.90;;;8.20;;
15952;SDS011;8075;47.766;8.846;2022-07-23T02:07:59;7.80;;;7.20;;
15952;SDS011;8075;47.766;8.846;2022-07-23T02:10:25;7.40;;;6.90;;
15952;SDS011;8075;47.766;8.846;2022-07-23T02:12:52;8.00;;;7.40;;
15952;SDS011;8075;47.766;8.846;2022-07-23T02:15:18;8.00;;;7.40;;
15952;SDS011;8075;47.766;8.846;2022-07-23T02:17:44;8.00;;;7.50;;
15952;SDS011;8075;47.766;8.846;2022-07-23T02:20:10;7.68;;;7.00;;
15952;SDS011;8075;47.766;8.846;2022-07-23T02:22:37;7.65;;;7.05;;
15952;SDS011;8075;47.766;8.846;2022-07-23T02:25:03;8.07;;;7.40;;
15952;SDS011;8075;47.766;8.846;2022-07-23T02:27:29;7.80;;;7.20;;
15952;SDS011;8075;47.766;8.846;2022-07-23T02:29:55;7.55;;;6.95;;
15952;SDS011;8075;47.766;8.846;2022-07-23T02:32:22;7.28;;;6.80;;
15952;SDS011;8075;47.766;8.846;2022-07-23T02:34:48;8.55;;;7.90;;
15952;SDS011;8075;47.766;8.846;2022-07-23T02:37:14;8.68;;;7.97;;
15952;SDS011;8075;47.766;8.846;2022-07-23T02:39:40;9.25;;;8.48;;
15952;SDS011;8075;47.766;8.846;2022-07-23T02:42:07;8.67;;;7.90;;
15952;SDS011;8075;47.766;8.846;2022-07-23T02:44:33;8.60;;;7.80;;
15952;SDS011;8075;47.766;8.846;2022-07-23T02:46:59;8.45;;;7.85;;
15952;SDS011;8075;47.766;8.846;2022-07-23T02:49:25;8.63;;;8.00;;
15952;SDS011;8075;47.766;8.846;2022-07-23T02:51:51;8.57;;;7.97;;
15952;SDS011;8075;47.766;8.846;2022-07-23T02:54:17;9.07;;;8.23;;
15952;SDS011;8075;47.766;8.846;2022-07-23T02:56:43;9.23;;;8.52;;
15952;SDS011;8075;47.766;8.846;2022-07-23T02:59:09;9.25;;;8.45;;
15952;SDS011;8075;47.766;8.846;2022-07-23T03:01:35;8.88;;;8.23;;
15952;SDS011;8075;47.766;8.846;2022-07-23T03:04:01;9.60;;;8.70;;
15952;SDS011;8075;47.766;8.846;2022-07-23T03:06:27;10.30;;;9.50;;
15952;SDS011;8075;47.766;8.846;2022-07-23T03:08:53;10.60;;;9.70;;
15952;SDS011;8075;47.766;8.846;2022-07-23T03:11:19;9.87;;;9.17;;
15952;SDS011;8075;47.766;8.846;2022-07-23T03:13:45;10.73;;;9.93;;
15952;SDS011;8075;47.766;8.846;2022-07-23T03:16:11;10.15;;;9.25;;
15952;SDS011;8075;47.766;8.846;2022-07-23T03:18:37;9.88;;;9.07;;
15952;SDS011;8075;47.766;8.846;2022-07-23T03:21:03;10.20;;;9.40;;
15952;SDS011;8075;47.766;8.846;2022-07-23T03:23:29;10.68;;;9.77;;
15952;SDS011;8075;47.766;8.846;2022-07-23T03:25:55;10.30;;;9.43;;
15952;SDS011;8075;47.766;8.846;2022-07-23T03:28:21;11.10;;;10.10;;
15952;SDS011;8075;47.766;8.846;2022-07-23T03:30:47;10.90;;;10.00;;
15952;SDS011;8075;47.766;8.846;2022-07-23T03:33:14;10.52;;;9.57;;
15952;SDS011;8075;47.766;8.846;2022-07-23T03:35:41;11.00;;;10.18;;
15952;SDS011;8075;47.766;8.846;2022-07-23T03:38:07;10.85;;;10.05;;
15952;SDS011;8075;47.766;8.846;2022-07-23T03:40:33;11.55;;;10.75;;
15952;SDS011;8075;47.766;8.846;2022-07-23T03:42:59;11.00;;;10.15;;
15952;SDS011;8075;47.766;8.846;2022-07-23T03:45:25;10.77;;;9.68;;
15952;SDS011;8075;47.766;8.846;2022-07-23T03:47:52;10.50;;;9.57;;
15952;SDS011;8075;47.766;8.846;2022-07-23T03:50:18;10.05;;;9.35;;
15952;SDS011;8075;47.766;8.846;2022-07-23T03:52:44;10.03;;;9.27;;
15952;SDS011;8075;47.766;8.846;2022-07-23T03:55:10;10.57;;;9.77;;
15952;SDS011;8075;47.766;8.846;2022-07-23T03:57:36;11.65;;;10.68;;
15952;SDS011;8075;47.766;8.846;2022-07-23T04:00:03;11.60;;;10.70;;
15952;SDS011;8075;47.766;8.846;2022-07-23T04:02:30;10.00;;;9.40;;
15952;SDS011;8075;47.766;8.846;2022-07-23T04:04:56;10.10;;;9.30;;
15952;SDS011;8075;47.766;8.846;2022-07-23T04:07:22;10.00;;;9.20;;
15952;SDS011;8075;47.766;8.846;2022-07-23T04:09:48;11.68;;;10.50;;
15952;SDS011;8075;47.766;8.846;2022-07-23T04:12:14;12.45;;;11.60;;
15952;SDS011;8075;47.766;8.846;2022-07-23T04:14:40;13.43;;;12.32;;
15952;SDS011;8075;47.766;8.846;2022-07-23T04:17:06;11.75;;;10.70;;
15952;SDS011;8075;47.766;8.846;2022-07-23T04:19:32;12.23;;;11.15;;
15952;SDS011;8075;47.766;8.846;2022-07-23T04:21:58;12.52;;;11.30;;
15952;SDS011;8075;47.766;8.846;2022-07-23T04:24:24;12.57;;;11.40;;
15952;SDS011;8075;47.766;8.846;2022-07-23T04:26:50;10.23;;;9.43;;
15952;SDS011;8075;47.766;8.846;2022-07-23T04:29:16;10.10;;;9.10;;
15952;SDS011;8075;47.766;8.846;2022-07-23T04:31:42;10.43;;;9.57;;
15952;SDS011;8075;47.766;8.846;2022-07-23T04:34:08;11.43;;;10.43;;
15952;SDS011;8075;47.766;8.846;2022-07-23T04:36:34;12.25;;;11.25;;
15952;SDS011;8075;47.766;8.846;2022-07-23T04:39:00;11.85;;;10.93;;
15952;SDS011;8075;47.766;8.846;2022-07-23T04:41:26;11.15;;;10.15;;
15952;SDS011;8075;47.766;8.846;2022-07-23T04:43:52;11.07;;;10.27;;
15952;SDS011;8075;47.766;8.846;2022-07-23T04:46:18;10.30;;;9.50;;
15952;SDS011;8075;47.766;8.846;2022-07-23T04:48:44;10.93;;;10.07;;
15952;SDS011;8075;47.766;8.846;2022-07-23T04:51:10;11.68;;;10.70;;
15952;SDS011;8075;47.766;8.846;2022-07-23T04:53:37;11.85;;;10.98;;
15952;SDS011;8075;47.766;8.846;2022-07-23T04:56:03;11.95;;;10.85;;
15952;SDS011;8075;47.766;8.846;2022-07-23T04:58:29;11.82;;;10.63;;
15952;SDS011;8075;47.766;8.846;2022-07-23T05:00:56;10.93;;;9.83;;
15952;SDS011;8075;47.766;8.846;2022-07-23T05:03:23;11.32;;;10.35;;
15952;SDS011;8075;47.766;8.846;2022-07-23T05:05:49;10.25;;;9.35;;
15952;SDS011;8075;47.766;8.846;2022-07-23T05:08:15;11.20;;;10.30;;
15952;SDS011;8075;47.766;8.846;2022-07-23T05:10:41;10.65;;;9.75;;
15952;SDS011;8075;47.766;8.846;2022-07-23T05:13:07;15.13;;;11.13;;
15952;SDS011;8075;47.766;8.846;2022-07-23T05:15:33;12.18;;;11.07;;
15952;SDS011;8075;47.766;8.846;2022-07-23T05:17:59;14.38;;;12.93;;
15952;SDS011;8075;47.766;8.846;2022-07-23T05:20:25;15.27;;;13.77;;
15952;SDS011;8075;47.766;8.846;2022-07-23T05:22:51;15.25;;;13.95;;
15952;SDS011;8075;47.766;8.846;2022-07-23T05:25:17;14.75;;;13.50;;
15952;SDS011;8075;47.766;8.846;2022-07-23T05:27:44;13.82;;;12.60;;
15952;SDS011;8075;47.766;8.846;2022-07-23T05:30:10;13.87;;;12.67;;
15952;SDS011;8075;47.766;8.846;2022-07-23T05:32:36;13.18;;;12.18;;
15952;SDS011;8075;47.766;8.846;2022-07-23T05:35:03;12.70;;;11.70;;
15952;SDS011;8075;47.766;8.846;2022-07-23T05:37:29;12.52;;;11.55;;
15952;SDS011;8075;47.766;8.846;2022-07-23T05:39:55;11.90;;;10.85;;
15952;SDS011;8075;47.766;8.846;2022-07-23T05:42:21;11.85;;;10.93;;
15952;SDS011;8075;47.766;8.846;2022-07-23T05:44:47;12.05;;;11.05;;
15952;SDS011;8075;47.766;8.846;2022-07-23T05:47:13;11.13;;;10.33;;
15952;SDS011;8075;47.766;8.846;2022-07-23T05:49:38;13.30;;;12.10;;
15952;SDS011;8075;47.766;8.846;2022-07-23T05:52:05;12.98;;;11.88;;
15952;SDS011;8075;47.766;8.846;2022-07-23T05:54:33;12.02;;;11.05;;
15952;SDS011;8075;47.766;8.846;2022-07-23T05:57:00;11.85;;;10.90;;
15952;SDS011;8075;47.766;8.846;2022-07-23T05:59:26;11.45;;;10.55;;
15952;SDS011;8075;47.766;8.846;2022-07-23T06:01:52;10.70;;;9.90;;
15952;SDS011;8075;47.766;8.846;2022-07-23T06:04:18;10.40;;;9.60;;
15952;SDS011;8075;47.766;8.846;2022-07-23T06:06:44;11.30;;;10.40;;
15952;SDS011;8075;47.766;8.846;2022-07-23T06:09:10;11.40;;;10.57;;
15952;SDS011;8075;47.766;8.846;2022-07-23T06:11:38;11.20;;;10.40;;
15952;SDS011;8075;47.766;8.846;2022-07-23T06:14:04;11.40;;;10.50;;
15952;SDS011;8075;47.766;8.846;2022-07-23T06:16:30;12.38;;;11.35;;
15952;SDS011;8075;47.766;8.846;2022-07-23T06:18:56;12.93;;;11.73;;
15952;SDS011;8075;47.766;8.846;2022-07-23T06:21:22;12.35;;;11.35;;
15952;SDS011;8075;47.766;8.846;2022-07-23T06:23:48;11.88;;;10.88;;
15952;SDS011;8075;47.766;8.846;2022-07-23T06:26:14;13.18;;;12.10;;
15952;SDS011;8075;47.766;8.846;2022-07-23T06:28:40;12.10;;;11.20;;
15952;SDS011;8075;47.766;8.846;2022-07-23T06:31:06;11.97;;;10.97;;
15952;SDS011;8075;47.766;8.846;2022-07-23T06:33:33;11.68;;;10.88;;
15952;SDS011;8075;47.766;8.846;2022-07-23T06:35:59;11.07;;;10.27;;
15952;SDS011;8075;47.766;8.846;2022-07-23T06:38:25;11.37;;;10.43;;
15952;SDS011;8075;47.766;8.846;2022-07-23T06:40:51;10.93;;;10.13;;
15952;SDS011;8075;47.766;8.846;2022-07-23T06:43:17;11.35;;;10.45;;
15952;SDS011;8075;47.766;8.846;2022-07-23T06:45:43;10.43;;;9.52;;
15952;SDS011;8075;47.766;8.846;2022-07-23T06:48:09;12.05;;;10.98;;
15952;SDS011;8075;47.766;8.846;2022-07-23T06:50:35;11.27;;;10.45;;
15952;SDS011;8075;47.766;8.846;2022-07-23T06:53:01;11.10;;;10.30;;
15952;SDS011;8075;47.766;8.846;2022-07-23T06:55:27;11.00;;;10.20;;
15952;SDS011;8075;47.766;8.846;2022-07-23T06:57:53;11.80;;;10.83;;
15952;SDS011;8075;47.766;8.846;2022-07-23T07:00:19;12.10;;;11.23;;
15952;SDS011;8075;47.766;8.846;2022-07-23T07:02:45;12.00;;;10.80;;
15952;SDS011;8075;47.766;8.846;2022-07-23T07:05:11;10.88;;;10.02;;
15952;SDS011;8075;47.766;8.846;2022-07-23T07:07:37;11.35;;;10.45;;
15952;SDS011;8075;47.766;8.846;2022-07-23T07:10:03;11.77;;;10.77;;
15952;SDS011;8075;47.766;8.846;2022-07-23T07:12:29;9.38;;;8.68;;
15952;SDS011;8075;47.766;8.846;2022-07-23T07:14:55;10.60;;;9.80;;
15952;SDS011;8075;47.766;8.846;2022-07-23T07:17:22;9.98;;;9.18;;
15952;SDS011;8075;47.766;8.846;2022-07-23T07:19:48;9.70;;;8.88;;
15952;SDS011;8075;47.766;8.846;2022-07-23T07:22:14;9.90;;;9.07;;
15952;SDS011;8075;47.766;8.846;2022-07-23T07:24:40;9.43;;;8.65;;
15952;SDS011;8075;47.766;8.846;2022-07-23T07:27:06;9.50;;;8.60;;
15952;SDS011;8075;47.766;8.846;2022-07-23T07:29:32;10.07;;;9.35;;
15952;SDS011;8075;47.766;8.846;2022-07-23T07:31:58;9.60;;;8.90;;
15952;SDS011;8075;47.766;8.846;2022-07-23T07:34:24;9.75;;;8.95;;
15952;SDS011;8075;47.766;8.846;2022-07-23T07:36:50;9.30;;;8.57;;
15952;SDS011;8075;47.766;8.846;2022-07-23T07:39:16;9.95;;;9.15;;
15952;SDS011;8075;47.766;8.846;2022-07-23T07:41:42;9.70;;;9.02;;
15952;SDS011;8075;47.766;8.846;2022-07-23T07:44:08;10.47;;;9.53;;
15952;SDS011;8075;47.766;8.846;2022-07-23T07:46:34;10.00;;;9.27;;
15952;SDS011;8075;47.766;8.846;2022-07-23T07:49:00;10.45;;;9.45;;
15952;SDS011;8075;47.766;8.846;2022-07-23T07:51:26;10.20;;;9.32;;
15952;SDS011;8075;47.766;8.846;2022-07-23T07:53:53;10.50;;;9.70;;
15952;SDS011;8075;47.766;8.846;2022-07-23T07:56:19;9.95;;;9.05;;
15952;SDS011;8075;47.766;8.846;2022-07-23T07:58:45;10.13;;;8.97;;
15952;SDS011;8075;47.766;8.846;2022-07-23T08:01:11;11.00;;;10.10;;
15952;SDS011;8075;47.766;8.846;2022-07-23T08:03:37;9.32;;;8.63;;
15952;SDS011;8075;47.766;8.846;2022-07-23T08:06:03;9.50;;;8.80;;
15952;SDS011;8075;47.766;8.846;2022-07-23T08:08:29;10.57;;;9.68;;
15952;SDS011;8075;47.766;8.846;2022-07-23T08:10:55;11.65;;;10.75;;
15952;SDS011;8075;47.766;8.846;2022-07-23T08:13:21;11.90;;;10.90;;
15952;SDS011;8075;47.766;8.846;2022-07-23T08:15:47;11.52;;;10.52;;
15952;SDS011;8075;47.766;8.846;2022-07-23T08:18:14;11.50;;;10.60;;
15952;SDS011;8075;47.766;8.846;2022-07-23T08:20:40;12.38;;;11.27;;
15952;SDS011;8075;47.766;8.846;2022-07-23T08:23:06;12.63;;;11.73;;
15952;SDS011;8075;47.766;8.846;2022-07-23T08:25:37;11.18;;;10.30;;
15952;SDS011;8075;47.766;8.846;2022-07-23T08:28:04;11.88;;;10.80;;
15952;SDS011;8075;47.766;8.846;2022-07-23T08:30:31;12.32;;;11.30;;
15952;SDS011;8075;47.766;8.846;2022-07-23T08:37:53;11.55;;;10.75;;
15952;SDS011;8075;47.766;8.846;2022-07-23T08:40:19;10.85;;;10.05;;
15952;SDS011;8075;47.766;8.846;2022-07-23T08:42:49;13.27;;;12.27;;
15952;SDS011;8075;47.766;8.846;2022-07-23T08:45:16;13.27;;;12.23;;
15952;SDS011;8075;47.766;8.846;2022-07-23T08:47:43;11.80;;;10.80;;
15952;SDS011;8075;47.766;8.846;2022-07-23T08:50:10;13.20;;;12.15;;
15952;SDS011;8075;47.766;8.846;2022-07-23T08:52:36;12.20;;;11.20;;
15952;SDS011;8075;47.766;8.846;2022-07-23T08:55:03;11.88;;;10.93;;
15952;SDS011;8075;47.766;8.846;2022-07-23T08:57:29;12.25;;;11.25;;
15952;SDS011;8075;47.766;8.846;2022-07-23T08:59:55;12.30;;;11.23;;
15952;SDS011;8075;47.766;8.846;2022-07-23T09:02:21;12.10;;;11.10;;
15952;SDS011;8075;47.766;8.846;2022-07-23T09:04:48;11.15;;;10.35;;
15952;SDS011;8075;47.766;8.846;2022-07-23T09:07:14;12.13;;;11.30;;
15952;SDS011;8075;47.766;8.846;2022-07-23T09:09:40;12.10;;;11.23;;
15952;SDS011;8075;47.766;8.846;2022-07-23T09:12:07;11.60;;;10.80;;
15952;SDS011;8075;47.766;8.846;2022-07-23T09:14:37;12.50;;;11.50;;
15952;SDS011;8075;47.766;8.846;2022-07-23T09:17:09;12.35;;;11.43;;
15952;SDS011;8075;47.766;8.846;2022-07-23T09:19:35;11.80;;;10.80;;
15952;SDS011;8075;47.766;8.846;2022-07-23T09:22:17;10.88;;;10.02;;
15952;SDS011;8075;47.766;8.846;2022-07-23T09:30:13;10.50;;;9.77;;
15952;SDS011;8075;47.766;8.846;2022-07-23T09:32:39;10.23;;;9.52;;
15952;SDS011;8075;47.766;8.846;2022-07-23T09:35:05;11.82;;;10.88;;
15952;SDS011;8075;47.766;8.846;2022-07-23T09:37:31;11.25;;;10.35;;
15952;SDS011;8075;47.766;8.846;2022-07-23T09:40:04;11.73;;;10.73;;
15952;SDS011;8075;47.766;8.846;2022-07-23T09:42:30;10.98;;;10.13;;
15952;SDS011;8075;47.766;8.846;2022-07-23T09:44:56;11.55;;;10.65;;
15952;SDS011;8075;47.766;8.846;2022-07-23T09:47:23;12.73;;;11.73;;
15952;SDS011;8075;47.766;8.846;2022-07-23T09:49:59;12.35;;;11.45;;
15952;SDS011;8075;47.766;8.846;2022-07-23T09:52:26;12.57;;;11.57;;
15952;SDS011;8075;47.766;8.846;2022-07-23T09:54:57;12.00;;;11.10;;
15952;SDS011;8075;47.766;8.846;2022-07-23T09:57:24;11.57;;;10.68;;
15952;SDS011;8075;47.766;8.846;2022-07-23T09:59:51;11.02;;;10.32;;
15952;SDS011;8075;47.766;8.846;2022-07-23T10:02:17;11.90;;;10.80;;
15952;SDS011;8075;47.766;8.846;2022-07-23T10:04:43;10.95;;;10.15;;
15952;SDS011;8075;47.766;8.846;2022-07-23T10:07:09;10.82;;;10.07;;
15952;SDS011;8075;47.766;8.846;2022-07-23T10:09:37;10.05;;;9.25;;
15952;SDS011;8075;47.766;8.846;2022-07-23T10:12:04;9.68;;;8.98;;
15952;SDS011;8075;47.766;8.846;2022-07-23T10:14:33;10.73;;;9.93;;
15952;SDS011;8075;47.766;8.846;2022-07-23T10:17:00;11.10;;;10.30;;
15952;SDS011;8075;47.766;8.846;2022-07-23T10:19:27;10.25;;;9.45;;
15952;SDS011;8075;47.766;8.846;2022-07-23T10:21:54;9.93;;;9.23;;
15952;SDS011;8075;47.766;8.846;2022-07-23T10:29:38;10.63;;;9.68;;
15952;SDS011;8075;47.766;8.846;2022-07-23T10:32:09;10.57;;;9.88;;
15952;SDS011;8075;47.766;8.846;2022-07-23T10:34:41;10.02;;;9.23;;
15952;SDS011;8075;47.766;8.846;2022-07-23T10:37:17;10.25;;;9.35;;
15952;SDS011;8075;47.766;8.846;2022-07-23T10:40:08;9.40;;;8.70;;
15952;SDS011;8075;47.766;8.846;2022-07-23T10:42:34;10.13;;;9.32;;
15952;SDS011;8075;47.766;8.846;2022-07-23T10:45:01;9.93;;;9.23;;
15952;SDS011;8075;47.766;8.846;2022-07-23T10:47:27;12.48;;;11.48;;
15952;SDS011;8075;47.766;8.846;2022-07-23T10:50:18;9.70;;;9.10;;
15952;SDS011;8075;47.766;8.846;2022-07-23T10:53:09;9.50;;;8.85;;
15952;SDS011;8075;47.766;8.846;2022-07-23T10:57:55;9.57;;;8.88;;
15952;SDS011;8075;47.766;8.846;2022-07-23T11:00:24;9.18;;;8.48;;
15952;SDS011;8075;47.766;8.846;2022-07-23T11:02:54;9.98;;;9.18;;
15952;SDS011;8075;47.766;8.846;2022-07-23T11:05:39;9.10;;;8.50;;
15952;SDS011;8075;47.766;8.846;2022-07-23T11:10:37;9.85;;;9.05;;
15952;SDS011;8075;47.766;8.846;2022-07-23T11:31:57;9.63;;;8.82;;
15952;SDS011;8075;47.766;8.846;2022-07-23T11:37:03;9.67;;;8.97;;
15952;SDS011;8075;47.766;8.846;2022-07-23T11:39:30;9.23;;;8.57;;
15952;SDS011;8075;47.766;8.846;2022-07-23T11:41:57;9.85;;;9.15;;
15952;SDS011;8075;47.766;8.846;2022-07-23T11:44:31;10.25;;;9.55;;
15952;SDS011;8075;47.766;8.846;2022-07-23T11:47:07;10.13;;;9.43;;
15952;SDS011;8075;47.766;8.846;2022-07-23T11:49:34;10.95;;;10.00;;
15952;SDS011;8075;47.766;8.846;2022-07-23T11:52:07;11.52;;;10.63;;
15952;SDS011;8075;47.766;8.846;2022-07-23T11:54:34;10.57;;;9.88;;
15952;SDS011;8075;47.766;8.846;2022-07-23T11:57:01;11.80;;;10.98;;
15952;SDS011;8075;47.766;8.846;2022-07-23T11:59:28;11.10;;;10.20;;
15952;SDS011;8075;47.766;8.846;2022-07-23T12:01:58;10.40;;;9.60;;
15952;SDS011;8075;47.766;8.846;2022-07-23T12:04:33;9.68;;;9.05;;
15952;SDS011;8075;47.766;8.846;2022-07-23T12:07:02;11.35;;;9.27;;
15952;SDS011;8075;47.766;8.846;2022-07-23T12:09:28;10.30;;;9.60;;
15952;SDS011;8075;47.766;8.846;2022-07-23T12:12:00;10.75;;;9.95;;
15952;SDS011;8075;47.766;8.846;2022-07-23T12:14:26;10.90;;;10.10;;
15952;SDS011;8075;47.766;8.846;2022-07-23T12:17:10;11.20;;;10.30;;
15952;SDS011;8075;47.766;8.846;2022-07-23T12:19:36;10.25;;;9.45;;
15952;SDS011;8075;47.766;8.846;2022-07-23T12:22:03;9.75;;;9.05;;
15952;SDS011;8075;47.766;8.846;2022-07-23T12:24:29;10.65;;;9.85;;
15952;SDS011;8075;47.766;8.846;2022-07-23T12:27:13;9.15;;;8.55;;
15952;SDS011;8075;47.766;8.846;2022-07-23T12:29:39;10.75;;;9.95;;
15952;SDS011;8075;47.766;8.846;2022-07-23T12:32:22;9.88;;;9.07;;
15952;SDS011;8075;47.766;8.846;2022-07-23T12:34:49;9.23;;;8.50;;
15952;SDS011;8075;47.766;8.846;2022-07-23T12:37:28;10.23;;;9.43;;
15952;SDS011;8075;47.766;8.846;2022-07-23T12:39:55;9.30;;;8.70;;
15952;SDS011;8075;47.766;8.846;2022-07-23T12:42:21;9.05;;;8.25;;
15952;SDS011;8075;47.766;8.846;2022-07-23T12:47:30;9.23;;;8.43;;
15952;SDS011;8075;47.766;8.846;2022-07-23T12:49:56;8.80;;;8.10;;
15952;SDS011;8075;47.766;8.846;2022-07-23T12:52:22;9.10;;;8.50;;
15952;SDS011;8075;47.766;8.846;2022-07-23T12:54:48;8.93;;;8.32;;
15952;SDS011;8075;47.766;8.846;2022-07-23T12:57:14;9.45;;;8.75;;
15952;SDS011;8075;47.766;8.846;2022-07-23T12:59:40;8.63;;;8.00;;
15952;SDS011;8075;47.766;8.846;2022-07-23T13:02:07;10.27;;;9.38;;
15952;SDS011;8075;47.766;8.846;2022-07-23T13:04:35;9.93;;;9.13;;
15952;SDS011;8075;47.766;8.846;2022-07-23T13:07:00;9.80;;;9.20;;
15952;SDS011;8075;47.766;8.846;2022-07-23T13:09:28;9.40;;;8.67;;
15952;SDS011;8075;47.766;8.846;2022-07-23T13:11:55;9.13;;;8.50;;
15952;SDS011;8075;47.766;8.846;2022-07-23T13:14:21;9.18;;;8.35;;
15952;SDS011;8075;47.766;8.846;2022-07-23T13:16:48;9.25;;;8.45;;
15952;SDS011;8075;47.766;8.846;2022-07-23T13:19:15;10.20;;;9.48;;
15952;SDS011;8075;47.766;8.846;2022-07-23T13:21:41;9.95;;;9.10;;
15952;SDS011;8075;47.766;8.846;2022-07-23T13:24:08;10.27;;;9.47;;
15952;SDS011;8075;47.766;8.846;2022-07-23T13:26:35;9.90;;;9.20;;
15952;SDS011;8075;47.766;8.846;2022-07-23T13:29:02;9.50;;;8.70;;
15952;SDS011;8075;47.766;8.846;2022-07-23T13:31:28;9.27;;;8.55;;
15952;SDS011;8075;47.766;8.846;2022-07-23T13:33:54;9.20;;;8.50;;
15952;SDS011;8075;47.766;8.846;2022-07-23T13:36:20;9.45;;;8.65;;
15952;SDS011;8075;47.766;8.846;2022-07-23T13:38:46;11.45;;;10.52;;
15952;SDS011;8075;47.766;8.846;2022-07-23T13:41:12;10.32;;;9.52;;
15952;SDS011;8075;47.766;8.846;2022-07-23T13:43:41;10.13;;;9.35;;
15952;SDS011;8075;47.766;8.846;2022-07-23T13:46:07;9.10;;;8.35;;
15952;SDS011;8075;47.766;8.846;2022-07-23T13:48:33;8.60;;;8.00;;
15952;SDS011;8075;47.766;8.846;2022-07-23T13:50:59;8.98;;;8.38;;
15952;SDS011;8075;47.766;8.846;2022-07-23T13:53:25;9.15;;;8.55;;
15952;SDS011;8075;47.766;8.846;2022-07-23T13:55:52;9.00;;;8.30;;
15952;SDS011;8075;47.766;8.846;2022-07-23T13:58:19;9.18;;;8.52;;
15952;SDS011;8075;47.766;8.846;2022-07-23T14:00:46;9.07;;;8.38;;
15952;SDS011;8075;47.766;8.846;2022-07-23T14:03:12;9.10;;;8.48;;
15952;SDS011;8075;47.766;8.846;2022-07-23T14:05:39;9.00;;;8.30;;
15952;SDS011;8075;47.766;8.846;2022-07-23T14:08:06;8.73;;;8.05;;
15952;SDS011;8075;47.766;8.846;2022-07-23T14:10:32;8.50;;;7.80;;
15952;SDS011;8075;47.766;8.846;2022-07-23T14:12:58;8.50;;;7.90;;
15952;SDS011;8075;47.766;8.846;2022-07-23T14:15:25;8.75;;;8.10;;
15952;SDS011;8075;47.766;8.846;2022-07-23T14:17:52;9.70;;;8.90;;
15952;SDS011;8075;47.766;8.846;2022-07-23T14:20:18;8.20;;;7.60;;
15952;SDS011;8075;47.766;8.846;2022-07-23T14:22:44;8.57;;;7.97;;
15952;SDS011;8075;47.766;8.846;2022-07-23T14:25:11;8.70;;;8.00;;
15952;SDS011;8075;47.766;8.846;2022-07-23T14:27:37;8.25;;;7.65;;
15952;SDS011;8075;47.766;8.846;2022-07-23T14:30:04;7.97;;;7.47;;
15952;SDS011;8075;47.766;8.846;2022-07-23T14:32:30;8.20;;;7.45;;
15952;SDS011;8075;47.766;8.846;2022-07-23T14:34:56;8.85;;;8.25;;
15952;SDS011;8075;47.766;8.846;2022-07-23T14:37:22;9.13;;;8.20;;
15952;SDS011;8075;47.766;8.846;2022-07-23T14:39:50;8.70;;;8.10;;
15952;SDS011;8075;47.766;8.846;2022-07-23T14:42:16;8.43;;;7.82;;
15952;SDS011;8075;47.766;8.846;2022-07-23T14:44:42;8.80;;;8.20;;
15952;SDS011;8075;47.766;8.846;2022-07-23T14:47:08;8.85;;;8.15;;
15952;SDS011;8075;47.766;8.846;2022-07-23T14:49:34;8.43;;;7.83;;
15952;SDS011;8075;47.766;8.846;2022-07-23T14:52:01;8.90;;;8.15;;
15952;SDS011;8075;47.766;8.846;2022-07-23T14:54:27;8.30;;;7.70;;
15952;SDS011;8075;47.766;8.846;2022-07-23T14:56:54;8.55;;;7.95;;
15952;SDS011;8075;47.766;8.846;2022-07-23T14:59:21;8.60;;;7.93;;
15952;SDS011;8075;47.766;8.846;2022-07-23T15:01:47;9.10;;;8.40;;
15952;SDS011;8075;47.766;8.846;2022-07-23T15:04:13;8.40;;;7.80;;
15952;SDS011;8075;47.766;8.846;2022-07-23T15:06:39;8.55;;;7.85;;
15952;SDS011;8075;47.766;8.846;2022-07-23T15:09:05;8.55;;;7.90;;
15952;SDS011;8075;47.766;8.846;2022-07-23T15:11:33;8.68;;;7.97;;
15952;SDS011;8075;47.766;8.846;2022-07-23T15:14:01;8.52;;;7.93;;
15952;SDS011;8075;47.766;8.846;2022-07-23T15:16:27;8.60;;;8.00;;
15952;SDS011;8075;47.766;8.846;2022-07-23T15:18:53;8.20;;;7.70;;
15952;SDS011;8075;47.766;8.846;2022-07-23T15:21:19;8.33;;;7.63;;
15952;SDS011;8075;47.766;8.846;2022-07-23T15:23:46;8.00;;;7.50;;
15952;SDS011;8075;47.766;8.846;2022-07-23T15:26:12;8.40;;;7.80;;
15952;SDS011;8075;47.766;8.846;2022-07-23T15:28:39;8.70;;;8.00;;
15952;SDS011;8075;47.766;8.846;2022-07-23T15:31:05;8.35;;;7.75;;